sensor_id;sensor_type;location;lat;lon;timestamp;P1;durP1;ratioP1;P2;durP2;ratioP2
15931;SDS011;8065;49.520;11.284;2022-07-09T00:00:30;2.70;;;1.90;;
15931;SDS011;8065;49.520;11.284;2022-07-09T00:02:57;2.73;;;1.80;;
15931;SDS011;8065;49.520;11.284;2022-07-09T00:05:25;4.47;;;2.20;;
15931;SDS011;8065;49.520;11.284;2022-07-09T00:07:51;3.97;;;2.10;;
15931;SDS011;8065;49.520;11.284;2022-07-09T00:10:18;4.87;;;2.20;;
15931;SDS011;8065;49.520;11.284;2022-07-09T00:12:45;3.27;;;1.93;;
15931;SDS011;8065;49.520;11.284;2022-07-09T00:15:11;4.50;;;1.90;;
15931;SDS011;8065;49.520;11.284;2022-07-09T00:17:38;4.20;;;2.13;;
15931;SDS011;8065;49.520;11.284;2022-07-09T00:20:05;2.80;;;2.10;;
15931;SDS011;8065;49.520;11.284;2022-07-09T00:22:34;3.47;;;2.17;;
15931;SDS011;8065;49.520;11.284;2022-07-09T00:25:01;4.33;;;2.63;;
15931;SDS011;8065;49.520;11.284;2022-07-09T00:27:27;4.53;;;2.57;;
15931;SDS011;8065;49.520;11.284;2022-07-09T00:29:54;3.23;;;2.27;;
15931;SDS011;8065;49.520;11.284;2022-07-09T00:32:20;3.70;;;2.57;;
15931;SDS011;8065;49.520;11.284;2022-07-09T00:34:47;3.73;;;2.40;;
15931;SDS011;8065;49.520;11.284;2022-07-09T00:37:13;3.57;;;2.47;;
15931;SDS011;8065;49.520;11.284;2022-07-09T00:39:41;3.13;;;2.33;;
15931;SDS011;8065;49.520;11.284;2022-07-09T00:42:08;4.27;;;2.27;;
15931;SDS011;8065;49.520;11.284;2022-07-09T00:44:36;2.50;;;2.10;;
15931;SDS011;8065;49.520;11.284;2022-07-09T00:47:03;2.77;;;2.40;;
15931;SDS011;8065;49.520;11.284;2022-07-09T00:49:31;3.37;;;2.27;;
15931;SDS011;8065;49.520;11.284;2022-07-09T00:52:02;4.50;;;2.63;;
15931;SDS011;8065;49.520;11.284;2022-07-09T00:54:28;3.07;;;2.30;;
15931;SDS011;8065;49.520;11.284;2022-07-09T00:56:56;2.57;;;2.37;;
15931;SDS011;8065;49.520;11.284;2022-07-09T00:59:24;3.33;;;2.33;;
15931;SDS011;8065;49.520;11.284;2022-07-09T01:01:50;3.23;;;2.30;;
15931;SDS011;8065;49.520;11.284;2022-07-09T01:04:17;5.33;;;2.87;;
15931;SDS011;8065;49.520;11.284;2022-07-09T01:06:44;3.83;;;2.10;;
15931;SDS011;8065;49.520;11.284;2022-07-09T01:09:11;3.73;;;2.47;;
15931;SDS011;8065;49.520;11.284;2022-07-09T01:11:38;5.43;;;2.90;;
15931;SDS011;8065;49.520;11.284;2022-07-09T01:14:07;2.60;;;2.13;;
15931;SDS011;8065;49.520;11.284;2022-07-09T01:16:34;5.07;;;2.53;;
15931;SDS011;8065;49.520;11.284;2022-07-09T01:19:02;2.73;;;2.47;;
15931;SDS011;8065;49.520;11.284;2022-07-09T01:21:30;4.47;;;2.77;;
15931;SDS011;8065;49.520;11.284;2022-07-09T01:23:57;2.50;;;2.33;;
15931;SDS011;8065;49.520;11.284;2022-07-09T01:26:23;4.63;;;2.43;;
15931;SDS011;8065;49.520;11.284;2022-07-09T01:28:50;4.10;;;2.43;;
15931;SDS011;8065;49.520;11.284;2022-07-09T01:31:17;3.90;;;2.40;;
15931;SDS011;8065;49.520;11.284;2022-07-09T01:33:44;2.93;;;2.60;;
15931;SDS011;8065;49.520;11.284;2022-07-09T01:36:11;3.80;;;2.47;;
15931;SDS011;8065;49.520;11.284;2022-07-09T01:38:39;3.93;;;2.57;;
15931;SDS011;8065;49.520;11.284;2022-07-09T01:41:05;6.17;;;2.73;;
15931;SDS011;8065;49.520;11.284;2022-07-09T01:43:32;5.13;;;2.40;;
15931;SDS011;8065;49.520;11.284;2022-07-09T01:45:59;3.37;;;2.50;;
15931;SDS011;8065;49.520;11.284;2022-07-09T01:48:26;3.67;;;2.30;;
15931;SDS011;8065;49.520;11.284;2022-07-09T01:50:53;3.77;;;2.20;;
15931;SDS011;8065;49.520;11.284;2022-07-09T01:53:20;4.53;;;2.60;;
15931;SDS011;8065;49.520;11.284;2022-07-09T01:55:48;2.60;;;2.40;;
15931;SDS011;8065;49.520;11.284;2022-07-09T01:58:14;3.43;;;2.57;;
15931;SDS011;8065;49.520;11.284;2022-07-09T02:00:41;4.13;;;2.83;;
15931;SDS011;8065;49.520;11.284;2022-07-09T02:03:07;4.93;;;3.10;;
15931;SDS011;8065;49.520;11.284;2022-07-09T02:05:34;5.13;;;3.00;;
15931;SDS011;8065;49.520;11.284;2022-07-09T02:08:00;2.73;;;2.53;;
15931;SDS011;8065;49.520;11.284;2022-07-09T02:10:27;5.63;;;3.10;;
15931;SDS011;8065;49.520;11.284;2022-07-09T02:12:55;3.63;;;2.83;;
15931;SDS011;8065;49.520;11.284;2022-07-09T02:15:21;3.43;;;2.60;;
15931;SDS011;8065;49.520;11.284;2022-07-09T02:17:48;4.17;;;2.60;;
15931;SDS011;8065;49.520;11.284;2022-07-09T02:20:14;2.87;;;2.60;;
15931;SDS011;8065;49.520;11.284;2022-07-09T02:22:41;2.93;;;2.67;;
15931;SDS011;8065;49.520;11.284;2022-07-09T02:25:09;3.13;;;2.50;;
15931;SDS011;8065;49.520;11.284;2022-07-09T02:27:35;2.97;;;2.60;;
15931;SDS011;8065;49.520;11.284;2022-07-09T02:30:03;2.80;;;2.60;;
15931;SDS011;8065;49.520;11.284;2022-07-09T02:32:31;5.77;;;3.00;;
15931;SDS011;8065;49.520;11.284;2022-07-09T02:34:57;3.93;;;3.00;;
15931;SDS011;8065;49.520;11.284;2022-07-09T02:37:24;3.50;;;2.97;;
15931;SDS011;8065;49.520;11.284;2022-07-09T02:39:50;3.03;;;2.83;;
15931;SDS011;8065;49.520;11.284;2022-07-09T02:42:17;3.13;;;2.73;;
15931;SDS011;8065;49.520;11.284;2022-07-09T02:44:43;4.10;;;2.90;;
15931;SDS011;8065;49.520;11.284;2022-07-09T02:47:11;3.03;;;2.73;;
15931;SDS011;8065;49.520;11.284;2022-07-09T02:49:38;3.67;;;2.73;;
15931;SDS011;8065;49.520;11.284;2022-07-09T02:52:04;4.80;;;3.00;;
15931;SDS011;8065;49.520;11.284;2022-07-09T02:54:31;4.70;;;2.93;;
15931;SDS011;8065;49.520;11.284;2022-07-09T02:56:58;5.77;;;2.87;;
15931;SDS011;8065;49.520;11.284;2022-07-09T02:59:25;3.03;;;2.70;;
15931;SDS011;8065;49.520;11.284;2022-07-09T03:01:52;4.67;;;3.10;;
15931;SDS011;8065;49.520;11.284;2022-07-09T03:04:19;6.03;;;2.83;;
15931;SDS011;8065;49.520;11.284;2022-07-09T03:06:46;3.93;;;3.17;;
15931;SDS011;8065;49.520;11.284;2022-07-09T03:09:12;4.27;;;3.00;;
15931;SDS011;8065;49.520;11.284;2022-07-09T03:11:39;2.80;;;2.60;;
15931;SDS011;8065;49.520;11.284;2022-07-09T03:14:05;3.80;;;2.87;;
15931;SDS011;8065;49.520;11.284;2022-07-09T03:16:32;6.20;;;3.00;;
15931;SDS011;8065;49.520;11.284;2022-07-09T03:18:58;5.50;;;3.10;;
15931;SDS011;8065;49.520;11.284;2022-07-09T03:21:26;5.27;;;2.57;;
15931;SDS011;8065;49.520;11.284;2022-07-09T03:23:53;2.70;;;2.50;;
15931;SDS011;8065;49.520;11.284;2022-07-09T03:26:19;3.83;;;3.00;;
15931;SDS011;8065;49.520;11.284;2022-07-09T03:28:45;3.67;;;2.80;;
15931;SDS011;8065;49.520;11.284;2022-07-09T03:31:12;4.60;;;3.07;;
15931;SDS011;8065;49.520;11.284;2022-07-09T03:33:39;3.03;;;2.73;;
15931;SDS011;8065;49.520;11.284;2022-07-09T03:36:05;3.60;;;2.80;;
15931;SDS011;8065;49.520;11.284;2022-07-09T03:38:34;2.90;;;2.60;;
15931;SDS011;8065;49.520;11.284;2022-07-09T03:41:00;3.70;;;2.73;;
15931;SDS011;8065;49.520;11.284;2022-07-09T03:43:27;3.07;;;2.87;;
15931;SDS011;8065;49.520;11.284;2022-07-09T03:45:53;4.13;;;2.80;;
15931;SDS011;8065;49.520;11.284;2022-07-09T03:48:20;6.67;;;2.93;;
15931;SDS011;8065;49.520;11.284;2022-07-09T03:50:47;3.33;;;2.60;;
15931;SDS011;8065;49.520;11.284;2022-07-09T03:53:13;4.43;;;2.73;;
15931;SDS011;8065;49.520;11.284;2022-07-09T03:55:41;4.60;;;2.87;;
15931;SDS011;8065;49.520;11.284;2022-07-09T03:58:07;4.60;;;2.87;;
15931;SDS011;8065;49.520;11.284;2022-07-09T04:00:34;2.97;;;2.50;;
15931;SDS011;8065;49.520;11.284;2022-07-09T04:03:00;3.87;;;2.57;;
15931;SDS011;8065;49.520;11.284;2022-07-09T04:05:27;4.13;;;2.73;;
15931;SDS011;8065;49.520;11.284;2022-07-09T04:07:54;3.53;;;2.80;;
15931;SDS011;8065;49.520;11.284;2022-07-09T04:10:20;8.67;;;3.20;;
15931;SDS011;8065;49.520;11.284;2022-07-09T04:12:48;3.30;;;3.00;;
15931;SDS011;8065;49.520;11.284;2022-07-09T04:15:15;3.70;;;3.03;;
15931;SDS011;8065;49.520;11.284;2022-07-09T04:17:41;3.43;;;3.00;;
15931;SDS011;8065;49.520;11.284;2022-07-09T04:20:08;3.60;;;3.17;;
15931;SDS011;8065;49.520;11.284;2022-07-09T04:22:36;3.70;;;2.70;;
15931;SDS011;8065;49.520;11.284;2022-07-09T04:25:02;3.73;;;3.10;;
15931;SDS011;8065;49.520;11.284;2022-07-09T04:27:29;4.30;;;2.83;;
15931;SDS011;8065;49.520;11.284;2022-07-09T04:29:57;3.60;;;2.70;;
15931;SDS011;8065;49.520;11.284;2022-07-09T04:32:23;3.97;;;2.80;;
15931;SDS011;8065;49.520;11.284;2022-07-09T04:34:50;4.37;;;2.80;;
15931;SDS011;8065;49.520;11.284;2022-07-09T04:37:16;3.50;;;2.80;;
15931;SDS011;8065;49.520;11.284;2022-07-09T04:39:43;3.23;;;2.57;;
15931;SDS011;8065;49.520;11.284;2022-07-09T04:42:09;5.03;;;2.73;;
15931;SDS011;8065;49.520;11.284;2022-07-09T04:44:37;4.90;;;2.40;;
15931;SDS011;8065;49.520;11.284;2022-07-09T04:47:05;3.13;;;2.77;;
15931;SDS011;8065;49.520;11.284;2022-07-09T04:49:32;4.07;;;2.70;;
15931;SDS011;8065;49.520;11.284;2022-07-09T04:51:58;2.77;;;2.33;;
15931;SDS011;8065;49.520;11.284;2022-07-09T04:54:25;2.77;;;2.57;;
15931;SDS011;8065;49.520;11.284;2022-07-09T04:56:51;6.17;;;2.63;;
15931;SDS011;8065;49.520;11.284;2022-07-09T04:59:18;5.03;;;3.10;;
15931;SDS011;8065;49.520;11.284;2022-07-09T05:01:45;3.47;;;2.70;;
15931;SDS011;8065;49.520;11.284;2022-07-09T05:04:13;3.67;;;2.50;;
15931;SDS011;8065;49.520;11.284;2022-07-09T05:06:40;2.97;;;2.77;;
15931;SDS011;8065;49.520;11.284;2022-07-09T05:09:06;3.07;;;2.67;;
15931;SDS011;8065;49.520;11.284;2022-07-09T05:11:32;3.50;;;2.73;;
15931;SDS011;8065;49.520;11.284;2022-07-09T05:13:59;4.70;;;2.70;;
15931;SDS011;8065;49.520;11.284;2022-07-09T05:16:25;4.13;;;2.80;;
15931;SDS011;8065;49.520;11.284;2022-07-09T05:18:52;4.30;;;2.77;;
15931;SDS011;8065;49.520;11.284;2022-07-09T05:21:20;3.40;;;3.10;;
15931;SDS011;8065;49.520;11.284;2022-07-09T05:23:47;3.53;;;2.80;;
15931;SDS011;8065;49.520;11.284;2022-07-09T05:26:13;4.03;;;2.90;;
15931;SDS011;8065;49.520;11.284;2022-07-09T05:28:40;4.27;;;3.27;;
15931;SDS011;8065;49.520;11.284;2022-07-09T05:31:06;3.43;;;3.00;;
15931;SDS011;8065;49.520;11.284;2022-07-09T05:33:33;5.07;;;2.60;;
15931;SDS011;8065;49.520;11.284;2022-07-09T05:35:59;3.23;;;2.60;;
15931;SDS011;8065;49.520;11.284;2022-07-09T05:38:27;2.80;;;2.60;;
15931;SDS011;8065;49.520;11.284;2022-07-09T05:40:54;2.80;;;2.60;;
15931;SDS011;8065;49.520;11.284;2022-07-09T05:43:22;4.97;;;2.80;;
15931;SDS011;8065;49.520;11.284;2022-07-09T05:45:49;7.50;;;2.97;;
15931;SDS011;8065;49.520;11.284;2022-07-09T05:48:15;6.00;;;2.80;;
15931;SDS011;8065;49.520;11.284;2022-07-09T05:50:42;4.60;;;2.70;;
15931;SDS011;8065;49.520;11.284;2022-07-09T05:53:08;5.67;;;3.30;;
15931;SDS011;8065;49.520;11.284;2022-07-09T05:55:36;4.47;;;2.83;;
15931;SDS011;8065;49.520;11.284;2022-07-09T05:58:03;7.10;;;3.10;;
15931;SDS011;8065;49.520;11.284;2022-07-09T06:00:29;4.23;;;3.00;;
15931;SDS011;8065;49.520;11.284;2022-07-09T06:02:56;4.77;;;3.23;;
15931;SDS011;8065;49.520;11.284;2022-07-09T06:05:22;4.70;;;2.80;;
15931;SDS011;8065;49.520;11.284;2022-07-09T06:07:49;3.30;;;2.57;;
15931;SDS011;8065;49.520;11.284;2022-07-09T06:10:15;6.20;;;2.80;;
15931;SDS011;8065;49.520;11.284;2022-07-09T06:12:43;3.27;;;2.80;;
15931;SDS011;8065;49.520;11.284;2022-07-09T06:15:10;5.47;;;2.67;;
15931;SDS011;8065;49.520;11.284;2022-07-09T06:17:37;6.17;;;2.80;;
15931;SDS011;8065;49.520;11.284;2022-07-09T06:20:04;3.70;;;2.70;;
15931;SDS011;8065;49.520;11.284;2022-07-09T06:22:31;4.47;;;2.90;;
15931;SDS011;8065;49.520;11.284;2022-07-09T06:24:58;2.70;;;2.50;;
15931;SDS011;8065;49.520;11.284;2022-07-09T06:27:25;3.27;;;2.57;;
15931;SDS011;8065;49.520;11.284;2022-07-09T06:29:53;2.60;;;2.40;;
15931;SDS011;8065;49.520;11.284;2022-07-09T06:32:19;3.83;;;2.60;;
15931;SDS011;8065;49.520;11.284;2022-07-09T06:34:46;3.63;;;2.70;;
15931;SDS011;8065;49.520;11.284;2022-07-09T06:37:12;3.93;;;2.50;;
15931;SDS011;8065;49.520;11.284;2022-07-09T06:39:38;6.40;;;3.10;;
15931;SDS011;8065;49.520;11.284;2022-07-09T06:42:11;5.33;;;2.80;;
15931;SDS011;8065;49.520;11.284;2022-07-09T06:44:39;2.60;;;2.40;;
15931;SDS011;8065;49.520;11.284;2022-07-09T06:47:07;3.53;;;2.43;;
15931;SDS011;8065;49.520;11.284;2022-07-09T06:49:34;3.93;;;2.57;;
15931;SDS011;8065;49.520;11.284;2022-07-09T06:52:00;3.23;;;2.40;;
15931;SDS011;8065;49.520;11.284;2022-07-09T06:54:27;4.20;;;2.77;;
15931;SDS011;8065;49.520;11.284;2022-07-09T06:56:54;4.00;;;2.60;;
15931;SDS011;8065;49.520;11.284;2022-07-09T06:59:21;6.37;;;3.17;;
15931;SDS011;8065;49.520;11.284;2022-07-09T07:01:48;4.40;;;2.60;;
15931;SDS011;8065;49.520;11.284;2022-07-09T07:04:16;4.73;;;2.80;;
15931;SDS011;8065;49.520;11.284;2022-07-09T07:06:45;4.80;;;2.30;;
15931;SDS011;8065;49.520;11.284;2022-07-09T07:09:13;4.33;;;2.97;;
15931;SDS011;8065;49.520;11.284;2022-07-09T07:11:40;4.83;;;2.60;;
15931;SDS011;8065;49.520;11.284;2022-07-09T07:14:06;2.57;;;2.37;;
15931;SDS011;8065;49.520;11.284;2022-07-09T07:16:33;2.73;;;2.17;;
15931;SDS011;8065;49.520;11.284;2022-07-09T07:18:59;2.90;;;2.33;;
15931;SDS011;8065;49.520;11.284;2022-07-09T07:21:27;2.77;;;2.17;;
15931;SDS011;8065;49.520;11.284;2022-07-09T07:23:54;3.73;;;2.80;;
15931;SDS011;8065;49.520;11.284;2022-07-09T07:26:20;4.93;;;2.67;;
15931;SDS011;8065;49.520;11.284;2022-07-09T07:28:46;4.93;;;2.37;;
15931;SDS011;8065;49.520;11.284;2022-07-09T07:31:14;4.23;;;2.30;;
15931;SDS011;8065;49.520;11.284;2022-07-09T07:33:40;2.67;;;2.33;;
15931;SDS011;8065;49.520;11.284;2022-07-09T07:36:08;3.47;;;2.30;;
15931;SDS011;8065;49.520;11.284;2022-07-09T07:38:35;4.20;;;2.07;;
15931;SDS011;8065;49.520;11.284;2022-07-09T07:41:02;2.87;;;2.00;;
15931;SDS011;8065;49.520;11.284;2022-07-09T07:43:28;2.87;;;2.00;;
15931;SDS011;8065;49.520;11.284;2022-07-09T07:45:55;2.33;;;1.80;;
15931;SDS011;8065;49.520;11.284;2022-07-09T07:48:21;3.40;;;1.97;;
15931;SDS011;8065;49.520;11.284;2022-07-09T07:50:48;2.37;;;1.40;;
15931;SDS011;8065;49.520;11.284;2022-07-09T07:53:15;2.83;;;2.00;;
15931;SDS011;8065;49.520;11.284;2022-07-09T07:55:42;2.37;;;1.90;;
15931;SDS011;8065;49.520;11.284;2022-07-09T07:58:09;4.73;;;1.70;;
15931;SDS011;8065;49.520;11.284;2022-07-09T08:00:35;4.07;;;2.00;;
15931;SDS011;8065;49.520;11.284;2022-07-09T08:03:02;3.43;;;1.90;;
15931;SDS011;8065;49.520;11.284;2022-07-09T08:05:29;2.00;;;1.30;;
15931;SDS011;8065;49.520;11.284;2022-07-09T08:07:55;3.93;;;1.70;;
15931;SDS011;8065;49.520;11.284;2022-07-09T08:10:22;2.13;;;1.43;;
15931;SDS011;8065;49.520;11.284;2022-07-09T08:12:50;2.33;;;1.63;;
15931;SDS011;8065;49.520;11.284;2022-07-09T08:15:17;3.27;;;1.77;;
15931;SDS011;8065;49.520;11.284;2022-07-09T08:17:43;1.57;;;1.33;;
15931;SDS011;8065;49.520;11.284;2022-07-09T08:20:10;3.77;;;1.83;;
15931;SDS011;8065;49.520;11.284;2022-07-09T08:22:37;3.17;;;1.70;;
15931;SDS011;8065;49.520;11.284;2022-07-09T08:25:04;2.73;;;1.37;;
15931;SDS011;8065;49.520;11.284;2022-07-09T08:27:31;2.43;;;1.50;;
15931;SDS011;8065;49.520;11.284;2022-07-09T08:29:59;1.97;;;1.60;;
15931;SDS011;8065;49.520;11.284;2022-07-09T08:32:25;2.57;;;1.70;;
15931;SDS011;8065;49.520;11.284;2022-07-09T08:34:52;3.37;;;1.73;;
15931;SDS011;8065;49.520;11.284;2022-07-09T08:37:18;3.53;;;1.80;;
15931;SDS011;8065;49.520;11.284;2022-07-09T08:39:44;3.20;;;1.63;;
15931;SDS011;8065;49.520;11.284;2022-07-09T08:42:11;2.40;;;1.80;;
15931;SDS011;8065;49.520;11.284;2022-07-09T08:44:38;3.67;;;1.50;;
15931;SDS011;8065;49.520;11.284;2022-07-09T08:47:09;2.90;;;1.70;;
15931;SDS011;8065;49.520;11.284;2022-07-09T08:49:37;4.83;;;1.77;;
15931;SDS011;8065;49.520;11.284;2022-07-09T08:52:05;3.33;;;2.00;;
15931;SDS011;8065;49.520;11.284;2022-07-09T08:54:32;3.03;;;1.67;;
15931;SDS011;8065;49.520;11.284;2022-07-09T08:57:01;2.97;;;1.80;;
15931;SDS011;8065;49.520;11.284;2022-07-09T08:59:28;3.93;;;1.50;;
15931;SDS011;8065;49.520;11.284;2022-07-09T09:01:55;3.30;;;1.63;;
15931;SDS011;8065;49.520;11.284;2022-07-09T09:04:23;1.50;;;1.40;;
15931;SDS011;8065;49.520;11.284;2022-07-09T09:06:50;2.13;;;1.77;;
15931;SDS011;8065;49.520;11.284;2022-07-09T09:09:19;1.40;;;1.30;;
15931;SDS011;8065;49.520;11.284;2022-07-09T09:11:46;2.00;;;1.43;;
15931;SDS011;8065;49.520;11.284;2022-07-09T09:14:17;6.00;;;1.60;;
15931;SDS011;8065;49.520;11.284;2022-07-09T09:16:46;2.47;;;1.80;;
15931;SDS011;8065;49.520;11.284;2022-07-09T09:19:13;1.57;;;1.43;;
15931;SDS011;8065;49.520;11.284;2022-07-09T09:21:41;2.57;;;1.90;;
15931;SDS011;8065;49.520;11.284;2022-07-09T09:24:08;2.47;;;1.70;;
15931;SDS011;8065;49.520;11.284;2022-07-09T09:26:35;2.30;;;1.80;;
15931;SDS011;8065;49.520;11.284;2022-07-09T09:29:03;1.93;;;1.80;;
15931;SDS011;8065;49.520;11.284;2022-07-09T09:31:30;2.73;;;1.50;;
15931;SDS011;8065;49.520;11.284;2022-07-09T09:34:09;3.23;;;1.67;;
15931;SDS011;8065;49.520;11.284;2022-07-09T09:36:37;1.90;;;1.70;;
15931;SDS011;8065;49.520;11.284;2022-07-09T09:39:16;2.73;;;1.60;;
15931;SDS011;8065;49.520;11.284;2022-07-09T09:41:45;3.40;;;1.77;;
15931;SDS011;8065;49.520;11.284;2022-07-09T09:44:13;1.53;;;1.43;;
15931;SDS011;8065;49.520;11.284;2022-07-09T09:46:41;1.90;;;1.70;;
15931;SDS011;8065;49.520;11.284;2022-07-09T09:49:09;3.40;;;1.90;;
15931;SDS011;8065;49.520;11.284;2022-07-09T09:51:41;4.93;;;1.80;;
15931;SDS011;8065;49.520;11.284;2022-07-09T09:54:13;2.70;;;1.80;;
15931;SDS011;8065;49.520;11.284;2022-07-09T09:56:42;2.97;;;1.57;;
15931;SDS011;8065;49.520;11.284;2022-07-09T09:59:09;2.20;;;1.70;;
15931;SDS011;8065;49.520;11.284;2022-07-09T10:01:36;1.70;;;1.60;;
15931;SDS011;8065;49.520;11.284;2022-07-09T10:04:03;3.63;;;1.67;;
15931;SDS011;8065;49.520;11.284;2022-07-09T10:06:30;2.20;;;1.67;;
15931;SDS011;8065;49.520;11.284;2022-07-09T10:09:00;4.97;;;1.63;;
15931;SDS011;8065;49.520;11.284;2022-07-09T10:11:38;4.73;;;1.77;;
15931;SDS011;8065;49.520;11.284;2022-07-09T10:14:05;1.97;;;1.77;;
15931;SDS011;8065;49.520;11.284;2022-07-09T10:16:33;1.47;;;1.33;;
15931;SDS011;8065;49.520;11.284;2022-07-09T10:19:04;3.73;;;1.37;;
15931;SDS011;8065;49.520;11.284;2022-07-09T10:21:35;3.13;;;1.30;;
15931;SDS011;8065;49.520;11.284;2022-07-09T10:24:03;1.17;;;1.07;;
15931;SDS011;8065;49.520;11.284;2022-07-09T10:26:39;2.53;;;1.53;;
15931;SDS011;8065;49.520;11.284;2022-07-09T10:29:18;2.73;;;1.30;;
15931;SDS011;8065;49.520;11.284;2022-07-09T10:31:46;2.13;;;1.40;;
15931;SDS011;8065;49.520;11.284;2022-07-09T10:34:19;1.50;;;1.33;;
15931;SDS011;8065;49.520;11.284;2022-07-09T10:37:08;3.43;;;1.43;;
15931;SDS011;8065;49.520;11.284;2022-07-09T10:39:34;1.50;;;1.40;;
15931;SDS011;8065;49.520;11.284;2022-07-09T10:42:03;1.87;;;1.30;;
15931;SDS011;8065;49.520;11.284;2022-07-09T10:44:35;7.53;;;1.87;;
15931;SDS011;8065;49.520;11.284;2022-07-09T10:47:03;2.73;;;1.30;;
15931;SDS011;8065;49.520;11.284;2022-07-09T10:49:30;4.10;;;1.50;;
15931;SDS011;8065;49.520;11.284;2022-07-09T10:51:59;3.27;;;1.63;;
15931;SDS011;8065;49.520;11.284;2022-07-09T10:54:26;2.00;;;1.30;;
15931;SDS011;8065;49.520;11.284;2022-07-09T10:56:53;3.60;;;1.53;;
15931;SDS011;8065;49.520;11.284;2022-07-09T10:59:21;3.37;;;1.60;;
15931;SDS011;8065;49.520;11.284;2022-07-09T11:01:48;3.37;;;1.50;;
15931;SDS011;8065;49.520;11.284;2022-07-09T11:04:23;2.07;;;1.47;;
15931;SDS011;8065;49.520;11.284;2022-07-09T11:06:54;1.47;;;1.23;;
15931;SDS011;8065;49.520;11.284;2022-07-09T11:09:21;1.63;;;1.40;;
15931;SDS011;8065;49.520;11.284;2022-07-09T11:11:48;1.53;;;1.43;;
15931;SDS011;8065;49.520;11.284;2022-07-09T11:14:15;2.80;;;1.40;;
15931;SDS011;8065;49.520;11.284;2022-07-09T11:16:42;1.63;;;1.40;;
15931;SDS011;8065;49.520;11.284;2022-07-09T11:19:19;2.70;;;1.40;;
15931;SDS011;8065;49.520;11.284;2022-07-09T11:21:46;2.87;;;1.30;;
15931;SDS011;8065;49.520;11.284;2022-07-09T11:24:14;3.00;;;1.30;;
15931;SDS011;8065;49.520;11.284;2022-07-09T11:26:41;2.37;;;1.47;;
15931;SDS011;8065;49.520;11.284;2022-07-09T11:29:08;2.07;;;1.50;;
15931;SDS011;8065;49.520;11.284;2022-07-09T11:31:35;2.90;;;1.30;;
15931;SDS011;8065;49.520;11.284;2022-07-09T11:34:04;2.80;;;1.60;;
15931;SDS011;8065;49.520;11.284;2022-07-09T11:36:39;5.23;;;1.50;;
15931;SDS011;8065;49.520;11.284;2022-07-09T11:39:09;2.07;;;1.50;;
15931;SDS011;8065;49.520;11.284;2022-07-09T11:41:39;1.70;;;1.60;;
15931;SDS011;8065;49.520;11.284;2022-07-09T11:44:07;3.40;;;1.40;;
15931;SDS011;8065;49.520;11.284;2022-07-09T11:46:34;1.63;;;1.50;;
15931;SDS011;8065;49.520;11.284;2022-07-09T11:49:12;5.30;;;1.60;;
15931;SDS011;8065;49.520;11.284;2022-07-09T11:51:40;16.97;;;2.30;;
15931;SDS011;8065;49.520;11.284;2022-07-09T11:54:08;16.03;;;2.53;;
15931;SDS011;8065;49.520;11.284;2022-07-09T11:56:41;14.57;;;1.80;;
15931;SDS011;8065;49.520;11.284;2022-07-09T11:59:09;2.90;;;1.50;;
15931;SDS011;8065;49.520;11.284;2022-07-09T12:01:36;1.87;;;1.43;;
15931;SDS011;8065;49.520;11.284;2022-07-09T12:04:04;1.53;;;1.43;;
15931;SDS011;8065;49.520;11.284;2022-07-09T12:06:31;3.37;;;1.23;;
15931;SDS011;8065;49.520;11.284;2022-07-09T12:08:58;5.30;;;1.40;;
15931;SDS011;8065;49.520;11.284;2022-07-09T12:11:25;2.93;;;1.50;;
15931;SDS011;8065;49.520;11.284;2022-07-09T12:13:52;1.93;;;1.40;;
15931;SDS011;8065;49.520;11.284;2022-07-09T12:16:19;4.13;;;1.60;;
15931;SDS011;8065;49.520;11.284;2022-07-09T12:18:46;7.70;;;2.20;;
15931;SDS011;8065;49.520;11.284;2022-07-09T12:21:14;5.77;;;1.50;;
15931;SDS011;8065;49.520;11.284;2022-07-09T12:23:40;2.50;;;1.47;;
15931;SDS011;8065;49.520;11.284;2022-07-09T12:26:07;2.70;;;1.60;;
15931;SDS011;8065;49.520;11.284;2022-07-09T12:28:33;2.70;;;1.50;;
15931;SDS011;8065;49.520;11.284;2022-07-09T12:31:00;2.73;;;1.77;;
15931;SDS011;8065;49.520;11.284;2022-07-09T12:33:26;3.77;;;1.60;;
15931;SDS011;8065;49.520;11.284;2022-07-09T12:35:52;3.77;;;1.50;;
15931;SDS011;8065;49.520;11.284;2022-07-09T12:38:20;2.67;;;1.67;;
15931;SDS011;8065;49.520;11.284;2022-07-09T12:40:47;1.80;;;1.50;;
15931;SDS011;8065;49.520;11.284;2022-07-09T12:43:13;1.70;;;1.33;;
15931;SDS011;8065;49.520;11.284;2022-07-09T12:45:40;2.07;;;1.40;;
15931;SDS011;8065;49.520;11.284;2022-07-09T12:48:07;2.97;;;1.80;;
15931;SDS011;8065;49.520;11.284;2022-07-09T12:50:33;3.57;;;1.50;;
15931;SDS011;8065;49.520;11.284;2022-07-09T12:52:59;3.67;;;1.37;;
15931;SDS011;8065;49.520;11.284;2022-07-09T12:55:27;2.33;;;1.47;;
15931;SDS011;8065;49.520;11.284;2022-07-09T12:57:54;2.37;;;1.30;;
15931;SDS011;8065;49.520;11.284;2022-07-09T13:00:20;1.70;;;1.60;;
15931;SDS011;8065;49.520;11.284;2022-07-09T13:02:47;2.20;;;1.30;;
15931;SDS011;8065;49.520;11.284;2022-07-09T13:05:13;1.40;;;1.30;;
15931;SDS011;8065;49.520;11.284;2022-07-09T13:07:42;1.53;;;1.43;;
15931;SDS011;8065;49.520;11.284;2022-07-09T13:10:08;1.80;;;1.30;;
15931;SDS011;8065;49.520;11.284;2022-07-09T13:12:36;2.40;;;1.57;;
15931;SDS011;8065;49.520;11.284;2022-07-09T13:15:03;1.43;;;1.33;;
15931;SDS011;8065;49.520;11.284;2022-07-09T13:17:30;2.27;;;1.40;;
15931;SDS011;8065;49.520;11.284;2022-07-09T13:19:57;1.60;;;1.50;;
15931;SDS011;8065;49.520;11.284;2022-07-09T13:22:23;1.60;;;1.50;;
15931;SDS011;8065;49.520;11.284;2022-07-09T13:24:50;1.60;;;1.50;;
15931;SDS011;8065;49.520;11.284;2022-07-09T13:27:16;1.77;;;1.47;;
15931;SDS011;8065;49.520;11.284;2022-07-09T13:29:45;4.63;;;1.63;;
15931;SDS011;8065;49.520;11.284;2022-07-09T13:32:11;3.63;;;1.70;;
15931;SDS011;8065;49.520;11.284;2022-07-09T13:34:38;1.63;;;1.40;;
15931;SDS011;8065;49.520;11.284;2022-07-09T13:37:04;3.37;;;1.57;;
15931;SDS011;8065;49.520;11.284;2022-07-09T13:39:31;2.37;;;1.60;;
15931;SDS011;8065;49.520;11.284;2022-07-09T13:41:57;2.63;;;1.60;;
15931;SDS011;8065;49.520;11.284;2022-07-09T13:44:24;1.60;;;1.50;;
15931;SDS011;8065;49.520;11.284;2022-07-09T13:46:51;2.03;;;1.80;;
15931;SDS011;8065;49.520;11.284;2022-07-09T13:49:19;2.40;;;1.80;;
15931;SDS011;8065;49.520;11.284;2022-07-09T13:51:45;1.60;;;1.50;;
15931;SDS011;8065;49.520;11.284;2022-07-09T13:54:12;1.70;;;1.60;;
15931;SDS011;8065;49.520;11.284;2022-07-09T13:56:38;1.97;;;1.87;;
15931;SDS011;8065;49.520;11.284;2022-07-09T13:59:05;1.83;;;1.67;;
15931;SDS011;8065;49.520;11.284;2022-07-09T14:01:31;2.97;;;1.80;;
15931;SDS011;8065;49.520;11.284;2022-07-09T14:03:59;2.00;;;1.80;;
15931;SDS011;8065;49.520;11.284;2022-07-09T14:06:26;3.23;;;1.80;;
15931;SDS011;8065;49.520;11.284;2022-07-09T14:08:53;2.17;;;2.07;;
15931;SDS011;8065;49.520;11.284;2022-07-09T14:11:19;3.57;;;1.90;;
15931;SDS011;8065;49.520;11.284;2022-07-09T14:13:46;3.33;;;2.00;;
15931;SDS011;8065;49.520;11.284;2022-07-09T14:16:13;2.10;;;1.90;;
15931;SDS011;8065;49.520;11.284;2022-07-09T14:18:40;2.00;;;1.90;;
15931;SDS011;8065;49.520;11.284;2022-07-09T14:21:08;2.33;;;2.13;;
15931;SDS011;8065;49.520;11.284;2022-07-09T14:23:34;2.30;;;2.17;;
15931;SDS011;8065;49.520;11.284;2022-07-09T14:26:02;4.00;;;2.10;;
15931;SDS011;8065;49.520;11.284;2022-07-09T14:28:28;8.63;;;2.20;;
15931;SDS011;8065;49.520;11.284;2022-07-09T14:30:55;2.10;;;2.00;;
15931;SDS011;8065;49.520;11.284;2022-07-09T14:33:21;2.10;;;2.00;;
15931;SDS011;8065;49.520;11.284;2022-07-09T14:35:48;2.10;;;1.80;;
15931;SDS011;8065;49.520;11.284;2022-07-09T14:38:15;5.80;;;2.10;;
15931;SDS011;8065;49.520;11.284;2022-07-09T14:40:42;4.43;;;2.20;;
15931;SDS011;8065;49.520;11.284;2022-07-09T14:43:08;4.60;;;2.00;;
15931;SDS011;8065;49.520;11.284;2022-07-09T14:45:35;2.27;;;2.07;;
15931;SDS011;8065;49.520;11.284;2022-07-09T14:48:02;2.03;;;1.90;;